createdAt,value
2017-12-01T00:01:26.235Z,10.10
2017-12-01T00:03:57.827Z,10.27
2017-12-01T00:06:29.084Z,9.93
2017-12-01T00:09:00.491Z,9.83
2017-12-01T00:11:31.796Z,10.57
2017-12-01T00:14:04.633Z,9.87
2017-12-01T00:16:36.288Z,11.70
2017-12-01T00:19:07.645Z,9.50
2017-12-01T00:21:39.231Z,10.20
2017-12-01T00:24:10.579Z,9.87
2017-12-01T00:26:41.856Z,10.93
2017-12-01T00:29:13.540Z,10.93
2017-12-01T00:31:44.868Z,11.77
2017-12-01T00:34:16.307Z,10.13
2017-12-01T00:36:51.278Z,10.90
2017-12-01T00:39:30.979Z,11.63
2017-12-01T00:42:07.436Z,10.53
2017-12-01T00:44:45.853Z,11.17
2017-12-01T00:47:17.684Z,11.33
2017-12-01T00:49:49.441Z,10.93
2017-12-01T00:52:20.952Z,11.83
2017-12-01T00:54:52.629Z,10.47
2017-12-01T00:57:23.957Z,9.43
2017-12-01T00:59:55.596Z,10.60
2017-12-01T01:02:27.175Z,10.47
2017-12-01T01:04:58.488Z,11.27
2017-12-01T01:07:31.010Z,11.53
2017-12-01T01:10:04.935Z,11.90
2017-12-01T01:12:36.306Z,11.70
2017-12-01T01:15:07.764Z,12.40
2017-12-01T01:17:39.344Z,12.87
2017-12-01T01:20:10.787Z,14.20
2017-12-01T01:22:42.158Z,13.03
2017-12-01T01:25:13.850Z,14.90
2017-12-01T01:27:45.166Z,14.50
2017-12-01T01:30:16.806Z,14.03
2017-12-01T01:32:48.117Z,15.57
2017-12-01T01:35:19.419Z,15.60
2017-12-01T01:37:51.017Z,15.27
2017-12-01T01:40:22.314Z,14.67
2017-12-01T01:42:53.666Z,14.50
2017-12-01T01:45:25.779Z,14.40
2017-12-01T01:47:57.121Z,14.80
2017-12-01T01:50:28.753Z,15.60
2017-12-01T01:53:00.068Z,14.30
2017-12-01T01:55:31.712Z,15.10
2017-12-01T01:58:04.865Z,14.77
2017-12-01T02:00:36.255Z,14.27
2017-12-01T02:03:07.908Z,13.87
2017-12-01T02:05:40.591Z,13.50
2017-12-01T02:08:13.253Z,15.33
2017-12-01T02:10:44.911Z,15.40
2017-12-01T02:13:16.377Z,14.40
2017-12-01T02:15:47.696Z,14.30
2017-12-01T02:18:19.289Z,16.60
2017-12-01T02:20:50.644Z,14.57
2017-12-01T02:23:22.427Z,14.60
2017-12-01T02:28:48.527Z,15.33
2017-12-01T02:31:20.420Z,14.97
2017-12-01T02:33:52.086Z,15.90
2017-12-01T02:36:23.904Z,15.57
2017-12-01T02:38:55.339Z,16.10
2017-12-01T02:41:26.808Z,15.60
2017-12-01T02:43:58.513Z,17.07
2017-12-01T02:46:29.926Z,16.67
2017-12-01T02:49:01.603Z,16.37
2017-12-01T02:51:33.288Z,16.40
2017-12-01T02:54:05.389Z,18.03
2017-12-01T02:56:37.364Z,16.13
2017-12-01T02:59:09.057Z,16.23
2017-12-01T03:01:41.672Z,16.13
2017-12-01T03:04:13.233Z,17.57
2017-12-01T03:06:45.907Z,16.90
2017-12-01T03:09:18.786Z,17.80
2017-12-01T03:11:50.547Z,16.70
2017-12-01T03:14:22.163Z,18.07
2017-12-01T03:16:53.880Z,15.43
2017-12-01T03:19:25.374Z,14.50
2017-12-01T03:21:57.302Z,15.97
2017-12-01T03:24:28.826Z,15.77
2017-12-01T03:27:00.236Z,13.80
2017-12-01T03:29:32.013Z,14.63
2017-12-01T03:32:04.494Z,15.40
2017-12-01T03:34:35.881Z,15.43
2017-12-01T03:37:07.318Z,14.53
2017-12-01T03:39:39.006Z,14.83
2017-12-01T03:42:10.431Z,15.40
2017-12-01T03:44:42.000Z,16.77
2017-12-01T03:47:13.706Z,15.83
2017-12-01T03:49:45.151Z,16.03
2017-12-01T03:52:16.669Z,15.67
2017-12-01T03:54:48.365Z,16.70
2017-12-01T03:57:20.281Z,16.73
2017-12-01T03:59:52.055Z,18.03
2017-12-01T04:02:23.440Z,16.47
2017-12-01T04:04:54.810Z,14.07
2017-12-01T04:07:26.478Z,16.23
2017-12-01T04:09:57.865Z,15.53
2017-12-01T04:12:29.280Z,15.10
2017-12-01T04:15:01.201Z,15.27
2017-12-01T04:17:33.740Z,16.13
2017-12-01T04:20:05.947Z,15.13
2017-12-01T04:22:38.690Z,15.60
2017-12-01T04:25:10.038Z,13.30
2017-12-01T04:27:41.974Z,14.57
2017-12-01T04:30:13.835Z,15.50
2017-12-01T04:32:45.268Z,14.03
2017-12-01T04:35:16.760Z,13.80
2017-12-01T04:37:48.456Z,14.00
2017-12-01T04:40:19.832Z,16.07
2017-12-01T04:42:51.220Z,17.33
2017-12-01T04:45:22.985Z,16.77
2017-12-01T04:47:54.377Z,16.97
2017-12-01T04:50:27.182Z,17.77
2017-12-01T04:52:58.547Z,15.50
2017-12-01T04:55:29.959Z,17.33
2017-12-01T04:58:03.753Z,19.00
2017-12-01T05:00:35.247Z,17.73
2017-12-01T05:03:06.949Z,17.47
2017-12-01T05:05:38.287Z,15.77
2017-12-01T05:08:09.648Z,17.60
2017-12-01T05:10:41.344Z,17.60
2017-12-01T05:13:13.147Z,16.50
2017-12-01T05:15:44.767Z,17.33
2017-12-01T05:18:16.914Z,16.40
2017-12-01T05:20:48.321Z,16.80
2017-12-01T05:23:20.526Z,18.30
2017-12-01T05:25:52.212Z,20.30
2017-12-01T05:28:23.855Z,17.80
2017-12-01T05:30:55.244Z,18.70
2017-12-01T05:33:27.994Z,15.93
2017-12-01T05:35:59.385Z,17.97
2017-12-01T05:38:32.396Z,16.07
2017-12-01T05:41:04.143Z,17.07
2017-12-01T05:43:36.622Z,15.50
2017-12-01T05:46:08.449Z,16.80
2017-12-01T05:48:39.837Z,18.17
2017-12-01T05:51:11.484Z,17.63
2017-12-01T05:53:42.862Z,18.07
2017-12-01T05:56:14.306Z,14.90
2017-12-01T05:58:45.763Z,16.67
2017-12-01T06:01:17.389Z,14.50
2017-12-01T06:03:49.124Z,14.27
2017-12-01T06:06:20.506Z,15.67
2017-12-01T06:08:52.160Z,14.07
2017-12-01T06:11:24.599Z,16.10
2017-12-01T06:13:55.990Z,14.77
2017-12-01T06:16:27.679Z,15.50
2017-12-01T06:18:59.101Z,16.30
2017-12-01T06:21:30.503Z,14.97
2017-12-01T06:24:02.991Z,16.13
2017-12-01T06:26:41.212Z,15.80
2017-12-01T06:29:12.918Z,17.20
2017-12-01T06:31:44.417Z,14.83
2017-12-01T06:34:16.134Z,16.20
2017-12-01T06:36:47.764Z,16.40
2017-12-01T06:39:19.202Z,16.50
2017-12-01T06:41:50.963Z,17.97
2017-12-01T06:44:22.373Z,15.43
2017-12-01T06:46:53.768Z,15.43
2017-12-01T06:49:25.421Z,15.50
2017-12-01T06:51:56.803Z,16.17
2017-12-01T06:54:28.201Z,18.20
2017-12-01T06:56:59.926Z,15.93
2017-12-01T06:59:31.668Z,17.40
2017-12-01T07:02:03.824Z,16.30
2017-12-01T07:04:35.501Z,17.50
2017-12-01T07:07:06.976Z,17.87
2017-12-01T07:09:39.729Z,17.10
2017-12-01T07:12:11.038Z,16.87
2017-12-01T07:14:42.497Z,17.27
2017-12-01T07:17:14.300Z,16.07
2017-12-01T07:19:45.894Z,15.93
2017-12-01T07:22:19.235Z,17.27
2017-12-01T07:24:51.362Z,16.37
2017-12-01T07:27:24.762Z,14.90
2017-12-01T07:32:23.031Z,17.07
2017-12-01T07:34:54.708Z,16.00
2017-12-01T07:37:26.878Z,16.90
2017-12-01T07:39:58.702Z,17.50
2017-12-01T07:42:30.691Z,18.03
2017-12-01T07:45:02.455Z,16.10
2017-12-01T07:47:33.863Z,17.13
2017-12-01T07:50:06.419Z,16.40
2017-12-01T07:52:38.815Z,15.80
2017-12-01T07:55:10.225Z,14.60
2017-12-01T07:57:42.042Z,16.70
2017-12-01T08:00:13.502Z,15.70
2017-12-01T08:02:44.916Z,15.00
2017-12-01T08:05:16.901Z,15.03
2017-12-01T08:07:48.559Z,15.13
2017-12-01T08:10:21.414Z,15.40
2017-12-01T08:12:53.124Z,16.67
2017-12-01T08:15:26.140Z,15.07
2017-12-01T08:18:06.586Z,16.00
2017-12-01T08:20:38.959Z,15.33
2017-12-01T08:23:19.535Z,15.43
2017-12-01T08:25:51.113Z,19.10
2017-12-01T08:28:23.077Z,17.47
2017-12-01T08:30:54.461Z,18.10
2017-12-01T08:33:26.039Z,16.60
2017-12-01T08:35:57.456Z,17.00
2017-12-01T08:38:28.852Z,18.13
2017-12-01T08:41:00.249Z,18.60
2017-12-01T08:43:34.052Z,17.20
2017-12-01T08:46:06.816Z,17.20
2017-12-01T08:48:38.573Z,16.00
2017-12-01T08:51:09.928Z,16.60
2017-12-01T08:53:41.892Z,19.93
2017-12-01T08:56:13.212Z,16.37
2017-12-01T08:58:44.561Z,17.43
2017-12-01T09:01:16.451Z,18.03
2017-12-01T09:03:47.900Z,16.53
2017-12-01T09:06:20.438Z,18.40
2017-12-01T09:08:51.734Z,18.50
2017-12-01T09:11:23.055Z,19.17
2017-12-01T09:13:54.715Z,17.97
2017-12-01T09:16:26.014Z,18.37
2017-12-01T09:18:57.340Z,18.80
2017-12-01T09:21:29.241Z,18.40
2017-12-01T09:24:00.772Z,17.20
2017-12-01T09:26:32.528Z,17.10
2017-12-01T09:29:04.279Z,16.00
2017-12-01T09:31:37.087Z,14.07
2017-12-01T09:34:08.727Z,18.30
2017-12-01T09:36:40.040Z,19.00
2017-12-01T09:39:11.672Z,19.23
2017-12-01T09:41:43.084Z,20.13
2017-12-01T09:44:14.670Z,17.83
2017-12-01T09:46:46.351Z,17.70
2017-12-01T09:49:17.856Z,19.47
2017-12-01T09:54:19.451Z,20.10
2017-12-01T09:56:50.773Z,14.60
2017-12-01T09:59:22.112Z,13.83
2017-12-01T10:01:53.787Z,13.60
2017-12-01T10:04:25.398Z,14.23
2017-12-01T10:06:56.753Z,13.50
2017-12-01T10:09:28.479Z,14.13
2017-12-01T10:11:59.849Z,13.20
2017-12-01T10:14:31.411Z,15.47
2017-12-01T10:17:03.392Z,17.27
2017-12-01T10:19:34.831Z,16.33
2017-12-01T10:22:07.774Z,17.50
2017-12-01T10:24:40.096Z,16.63
2017-12-01T10:27:11.528Z,17.00
2017-12-01T10:29:44.172Z,19.20
2017-12-01T10:32:15.876Z,17.87
2017-12-01T10:34:47.243Z,18.30
2017-12-01T10:37:20.090Z,16.97
2017-12-01T10:39:51.455Z,16.83
2017-12-01T10:42:23.100Z,17.27
2017-12-01T10:44:54.726Z,18.00
2017-12-01T10:47:27.936Z,16.00
2017-12-01T10:49:59.540Z,15.57
2017-12-01T10:52:32.045Z,16.70
2017-12-01T10:55:04.259Z,17.20
2017-12-01T10:57:35.909Z,17.67
2017-12-01T11:00:07.311Z,18.00
2017-12-01T11:02:38.615Z,19.20
2017-12-01T11:05:10.301Z,19.47
2017-12-01T11:07:41.686Z,17.77
2017-12-01T11:10:13.020Z,15.80
2017-12-01T11:12:44.694Z,17.60
2017-12-01T11:15:16.199Z,16.97
2017-12-01T11:17:47.550Z,15.30
2017-12-01T11:20:19.196Z,16.50
2017-12-01T11:22:50.564Z,17.80
2017-12-01T11:25:22.190Z,19.20
2017-12-01T11:27:53.572Z,18.87
2017-12-01T11:30:25.559Z,20.00
2017-12-01T11:32:57.262Z,19.93
2017-12-01T11:35:30.707Z,16.83
2017-12-01T11:38:03.908Z,16.80
2017-12-01T11:40:35.281Z,19.23
2017-12-01T11:43:06.950Z,19.80
2017-12-01T11:45:38.270Z,19.47
2017-12-01T11:48:09.612Z,19.60
2017-12-01T11:50:41.209Z,20.33
2017-12-01T11:53:12.615Z,19.67
2017-12-01T11:55:44.068Z,20.97
2017-12-01T11:58:15.774Z,20.00
2017-12-01T12:00:47.696Z,19.03
2017-12-01T12:03:19.231Z,15.87
2017-12-01T12:05:50.707Z,15.37
2017-12-01T12:08:23.763Z,15.60
2017-12-01T12:10:56.328Z,16.67
2017-12-01T12:13:27.980Z,15.27
2017-12-01T12:15:59.761Z,16.47
2017-12-01T12:18:31.142Z,15.97
2017-12-01T12:21:03.115Z,13.97
2017-12-01T12:23:35.263Z,15.30
2017-12-01T12:29:10.065Z,17.30
2017-12-01T12:31:41.585Z,19.13
2017-12-01T12:34:13.031Z,19.47
2017-12-01T12:36:45.155Z,20.07
2017-12-01T12:39:16.847Z,20.90
2017-12-01T12:41:49.356Z,20.37
2017-12-01T12:44:23.528Z,24.23
2017-12-01T12:46:55.233Z,22.17
2017-12-01T12:49:27.140Z,21.83
2017-12-01T12:52:00.783Z,22.53
2017-12-01T12:54:36.685Z,18.13
2017-12-01T12:57:09.025Z,21.00
2017-12-01T12:59:40.403Z,21.07
2017-12-01T13:02:12.087Z,17.70
2017-12-01T13:04:43.576Z,20.67
2017-12-01T13:07:15.338Z,21.03
2017-12-01T13:09:46.850Z,21.30
2017-12-01T13:12:18.852Z,21.80
2017-12-01T13:14:50.547Z,23.70
2017-12-01T13:17:21.918Z,24.40
2017-12-01T13:19:53.606Z,26.10
2017-12-01T13:22:24.965Z,24.50
2017-12-01T13:24:56.548Z,24.87
2017-12-01T13:27:28.577Z,22.83
2017-12-01T13:30:00.272Z,22.10
2017-12-01T13:32:32.174Z,24.03
2017-12-01T13:35:04.643Z,20.70
2017-12-01T13:37:36.023Z,20.40
2017-12-01T13:40:07.696Z,20.70
2017-12-01T13:42:39.941Z,22.70
2017-12-01T13:45:11.368Z,20.43
2017-12-01T13:47:43.107Z,20.67
2017-12-01T13:50:15.368Z,22.40
2017-12-01T13:52:47.103Z,20.20
2017-12-01T13:55:18.900Z,21.47
2017-12-01T13:57:50.322Z,21.23
2017-12-01T14:00:24.582Z,20.93
2017-12-01T14:02:56.002Z,21.93
2017-12-01T14:05:29.400Z,21.43
2017-12-01T14:08:02.820Z,21.67
2017-12-01T14:10:35.016Z,21.60
2017-12-01T14:13:06.395Z,23.40
2017-12-01T14:15:39.915Z,21.77
2017-12-01T14:18:11.299Z,22.40
2017-12-01T14:20:42.666Z,20.20
2017-12-01T14:23:14.330Z,20.57
2017-12-01T14:25:45.648Z,21.47
2017-12-01T14:28:17.215Z,22.00
2017-12-01T14:30:48.819Z,20.13
2017-12-01T14:33:20.882Z,22.63
2017-12-01T14:35:52.469Z,20.00
2017-12-01T14:38:26.111Z,21.40
2017-12-01T14:40:57.453Z,21.50
2017-12-01T14:43:30.869Z,20.30
2017-12-01T14:46:02.951Z,19.43
2017-12-01T14:48:34.964Z,18.30
2017-12-01T14:51:06.357Z,20.73
2017-12-01T14:53:39.383Z,19.97
2017-12-01T14:56:10.999Z,21.40
2017-12-01T14:58:43.104Z,20.40
2017-12-01T15:01:14.806Z,21.53
2017-12-01T15:03:46.174Z,20.50
2017-12-01T15:06:19.028Z,21.60
2017-12-01T15:09:53.240Z,23.03
2017-12-01T15:12:25.505Z,22.07
2017-12-01T15:14:57.125Z,20.20
2017-12-01T15:17:28.616Z,18.43
2017-12-01T15:19:59.945Z,21.43
2017-12-01T15:22:31.828Z,20.57
2017-12-01T15:25:04.048Z,22.60
2017-12-01T15:27:35.698Z,20.37
2017-12-01T15:30:07.096Z,19.70
2017-12-01T15:32:38.543Z,18.87
2017-12-01T15:35:10.349Z,18.43
2017-12-01T15:37:41.826Z,20.50
2017-12-01T15:40:13.254Z,19.67
2017-12-01T15:42:44.959Z,20.20
2017-12-01T15:45:16.655Z,20.40
2017-12-01T15:47:48.332Z,19.67
2017-12-01T15:50:19.818Z,22.40
2017-12-01T15:52:51.158Z,24.73
2017-12-01T15:55:23.994Z,22.47
2017-12-01T15:57:55.406Z,21.73
2017-12-01T16:00:28.750Z,22.23
2017-12-01T16:03:00.753Z,24.30
2017-12-01T16:05:32.662Z,22.83
2017-12-01T16:08:05.318Z,22.53
2017-12-01T16:10:37.128Z,24.83
2017-12-01T16:13:08.497Z,25.00
2017-12-01T16:15:40.211Z,24.23
2017-12-01T16:18:11.633Z,22.83
2017-12-01T16:20:43.409Z,23.13
2017-12-01T16:23:15.157Z,22.53
2017-12-01T16:25:46.687Z,23.33
2017-12-01T16:28:18.083Z,25.33
2017-12-01T16:30:49.710Z,23.50
2017-12-01T16:33:23.146Z,20.20
2017-12-01T16:35:54.797Z,22.30
2017-12-01T16:38:27.969Z,20.87
2017-12-01T16:40:59.347Z,20.40
2017-12-01T16:43:31.006Z,21.53
2017-12-01T16:46:04.290Z,23.50
2017-12-01T16:48:36.708Z,21.90
2017-12-01T16:51:08.143Z,18.20
2017-12-01T16:53:39.541Z,17.90
2017-12-01T16:56:12.552Z,16.80
2017-12-01T16:58:47.266Z,16.07
2017-12-01T17:01:21.341Z,16.53
2017-12-01T17:03:53.276Z,18.23
2017-12-01T17:06:25.113Z,17.30
2017-12-01T17:08:56.966Z,18.43
2017-12-01T17:11:28.405Z,19.70
2017-12-01T17:14:00.455Z,18.80
2017-12-01T17:16:31.879Z,19.43
2017-12-01T17:19:03.732Z,17.07
2017-12-01T17:21:35.598Z,19.00
2017-12-01T17:24:06.995Z,18.80
2017-12-01T17:26:38.640Z,19.20
2017-12-01T17:29:09.982Z,18.20
2017-12-01T17:31:41.348Z,20.50
2017-12-01T17:34:13.210Z,19.43
2017-12-01T17:36:45.762Z,19.43
2017-12-01T17:39:17.663Z,26.47
2017-12-01T17:41:49.063Z,23.70
2017-12-01T17:44:22.862Z,21.40
2017-12-01T17:46:54.872Z,19.83
2017-12-01T17:49:27.222Z,19.00
2017-12-01T17:51:58.850Z,20.73
2017-12-01T17:54:32.247Z,19.30
2017-12-01T17:57:03.955Z,18.17
2017-12-01T17:59:37.162Z,21.63
2017-12-01T18:02:09.255Z,19.13
2017-12-01T18:04:40.951Z,18.10
2017-12-01T18:07:12.679Z,17.17
2017-12-01T18:09:44.619Z,18.43
2017-12-01T18:12:16.271Z,23.60
2017-12-01T18:14:48.197Z,19.40
2017-12-01T18:17:19.784Z,18.60
2017-12-01T18:19:51.787Z,18.70
2017-12-01T18:22:23.404Z,19.23
2017-12-01T18:24:54.828Z,18.33
2017-12-01T18:27:26.846Z,17.17
2017-12-01T18:29:58.287Z,20.93
2017-12-01T18:32:29.677Z,20.50
2017-12-01T18:35:01.386Z,17.17
2017-12-01T18:37:33.712Z,17.90
2017-12-01T18:40:07.067Z,16.70
2017-12-01T18:42:38.511Z,19.10
2017-12-01T18:45:09.956Z,19.33
2017-12-01T18:47:42.496Z,19.33
2017-12-01T18:50:13.917Z,16.30
2017-12-01T18:52:45.676Z,18.50
2017-12-01T18:55:17.201Z,22.40
2017-12-01T18:57:48.560Z,19.40
2017-12-01T19:00:22.394Z,20.30
2017-12-01T19:02:53.801Z,20.60
2017-12-01T19:05:26.431Z,20.00
2017-12-01T19:07:57.841Z,19.10
2017-12-01T19:10:29.767Z,18.00
2017-12-01T19:13:01.514Z,19.67
2017-12-01T19:15:33.771Z,20.67
2017-12-01T19:18:06.627Z,21.40
2017-12-01T19:20:38.164Z,21.20
2017-12-01T19:23:09.867Z,20.50
2017-12-01T19:25:42.712Z,21.80
2017-12-01T19:28:14.604Z,22.87
2017-12-01T19:30:46.828Z,22.60
2017-12-01T19:33:18.492Z,20.17
2017-12-01T19:35:50.170Z,21.87
2017-12-01T19:38:22.401Z,20.40
2017-12-01T19:40:54.060Z,19.13
2017-12-01T19:43:28.474Z,21.50
2017-12-01T19:46:00.040Z,20.20
2017-12-01T19:48:31.964Z,21.10
2017-12-01T19:51:05.142Z,21.70
2017-12-01T19:53:37.449Z,22.30
2017-12-01T19:58:45.690Z,22.10
2017-12-01T20:01:17.503Z,21.13
2017-12-01T20:03:49.284Z,20.70
2017-12-01T20:06:21.084Z,19.57
2017-12-01T20:08:57.268Z,20.67
2017-12-01T20:11:28.742Z,19.67
2017-12-01T20:14:00.160Z,20.80
2017-12-01T20:16:37.124Z,20.27
2017-12-01T20:19:08.696Z,21.57
2017-12-01T20:21:41.511Z,21.87
2017-12-01T20:24:12.889Z,22.70
2017-12-01T20:26:44.862Z,23.60
2017-12-01T20:29:17.467Z,24.30
2017-12-01T20:31:49.139Z,28.00
2017-12-01T20:34:20.830Z,24.30
2017-12-01T20:36:52.196Z,23.17
2017-12-01T20:39:23.946Z,23.27
2017-12-01T20:41:55.847Z,22.90
2017-12-01T20:44:27.230Z,23.10
2017-12-01T20:46:58.961Z,22.90
2017-12-01T20:49:31.471Z,21.47
2017-12-01T20:54:47.961Z,24.33
2017-12-01T20:57:20.642Z,24.57
2017-12-01T20:59:52.515Z,21.60
2017-12-01T21:02:24.438Z,21.20
2017-12-01T21:04:55.865Z,23.73
2017-12-01T21:07:27.498Z,23.80
2017-12-01T21:09:58.927Z,25.17
2017-12-01T21:12:30.322Z,28.07
2017-12-01T21:15:02.371Z,24.70
2017-12-01T21:17:33.951Z,22.80
2017-12-01T21:20:07.330Z,22.20
2017-12-01T21:22:39.146Z,21.83
2017-12-01T21:25:11.109Z,21.27
2017-12-01T21:27:42.539Z,21.60
2017-12-01T21:30:14.002Z,21.53
2017-12-01T21:32:45.679Z,22.80
2017-12-01T21:35:17.206Z,21.60
2017-12-01T21:37:48.643Z,21.67
2017-12-01T21:40:20.516Z,22.40
2017-12-01T21:42:52.114Z,22.40
2017-12-01T21:45:23.808Z,17.97
2017-12-01T21:47:55.762Z,24.07
2017-12-01T21:50:27.578Z,25.27
2017-12-01T21:52:59.828Z,22.60
2017-12-01T21:55:31.163Z,20.00
2017-12-01T21:58:04.844Z,22.47
2017-12-01T22:00:36.341Z,23.07
2017-12-01T22:03:07.698Z,23.07
2017-12-01T22:05:39.535Z,21.57
2017-12-01T22:08:10.956Z,21.50
2017-12-01T22:10:42.714Z,21.57
2017-12-01T22:13:14.697Z,22.50
2017-12-01T22:15:46.237Z,21.60
2017-12-01T22:18:18.149Z,20.33
2017-12-01T22:20:49.561Z,21.67
2017-12-01T22:23:22.160Z,20.83
2017-12-01T22:28:26.797Z,20.63
2017-12-01T22:30:58.197Z,20.60
2017-12-01T22:33:29.866Z,19.50
2017-12-01T22:36:01.426Z,19.63
2017-12-01T22:38:33.683Z,20.10
2017-12-01T22:41:06.011Z,20.47
2017-12-01T22:43:38.550Z,21.43
2017-12-01T22:46:10.175Z,21.37
2017-12-01T22:48:41.535Z,20.27
2017-12-01T22:51:13.080Z,19.87
2017-12-01T22:53:44.848Z,19.73
2017-12-01T22:56:16.284Z,20.23
2017-12-01T22:58:47.975Z,18.70
2017-12-01T23:01:19.567Z,19.90
2017-12-01T23:03:51.225Z,20.60
2017-12-01T23:06:23.049Z,20.90
2017-12-01T23:08:55.754Z,19.77
2017-12-01T23:11:29.103Z,21.60
2017-12-01T23:14:01.158Z,21.07
2017-12-01T23:16:34.904Z,19.40
2017-12-01T23:19:07.262Z,20.70
2017-12-01T23:21:39.082Z,20.60
2017-12-01T23:24:12.251Z,20.57
2017-12-01T23:26:44.059Z,20.50
2017-12-01T23:32:12.029Z,19.20
2017-12-01T23:34:43.666Z,18.77
2017-12-01T23:37:15.012Z,21.07
2017-12-01T23:39:46.615Z,21.00
2017-12-01T23:42:18.351Z,20.73
2017-12-01T23:44:50.382Z,20.23
2017-12-01T23:47:22.455Z,19.00
2017-12-01T23:49:55.956Z,22.17
2017-12-01T23:52:28.329Z,22.30
2017-12-01T23:55:03.270Z,20.67
2017-12-01T23:57:38.974Z,20.23
